sensor_id;sensor_type;location;lat;lon;timestamp;pressure;altitude;pressure_sealevel;temperature;humidity
69593;BME280;56796;50.122;14.468;2023-12-04T00:06:30;985.53;;;-5.02;95.86
69593;BME280;56796;50.122;14.468;2023-12-04T00:25:55;985.42;;;-5.3;96.25
69593;BME280;56796;50.122;14.468;2023-12-04T00:45:19;985.49;;;-5.47;96.51
69593;BME280;56796;50.122;14.468;2023-12-04T01:04:45;985.39;;;-5.68;96.59
69593;BME280;56796;50.122;14.468;2023-12-04T01:24:09;985.63;;;-5.88;96.76
69593;BME280;56796;50.122;14.468;2023-12-04T01:43:37;985.62;;;-5.94;96.84
69593;BME280;56796;50.122;14.468;2023-12-04T02:02:56;985.51;;;-5.95;96.67
69593;BME280;56796;50.122;14.468;2023-12-04T02:22:22;985.29;;;-6.09;96.68
69593;BME280;56796;50.122;14.468;2023-12-04T02:41:47;985.19;;;-6.23;97.2
69593;BME280;56796;50.122;14.468;2023-12-04T03:01:18;985;;;-6.57;97.98
69593;BME280;56796;50.122;14.468;2023-12-04T03:20:36;984.85;;;-6.79;98.38
69593;BME280;56796;50.122;14.468;2023-12-04T03:39:51;984.71;;;-6.76;98.64
69593;BME280;56796;50.122;14.468;2023-12-04T03:59:09;984.5;;;-6.87;98.51
69593;BME280;56796;50.122;14.468;2023-12-04T04:18:34;984.45;;;-6.92;98.45
69593;BME280;56796;50.122;14.468;2023-12-04T04:37:59;984.43;;;-6.94;98.56
69593;BME280;56796;50.122;14.468;2023-12-04T04:57:25;984.36;;;-7.07;98.51
69593;BME280;56796;50.122;14.468;2023-12-04T05:16:50;984.44;;;-7.06;98.24
69593;BME280;56796;50.122;14.468;2023-12-04T05:36:16;984.33;;;-7.25;98.28
69593;BME280;56796;50.122;14.468;2023-12-04T05:55:42;984.12;;;-7.46;98.31
69593;BME280;56796;50.122;14.468;2023-12-04T06:15:10;983.92;;;-7.41;98.45
69593;BME280;56796;50.122;14.468;2023-12-04T06:34:28;983.81;;;-7.21;98.39
69593;BME280;56796;50.122;14.468;2023-12-04T06:53:54;983.72;;;-6.29;98.1
69593;BME280;56796;50.122;14.468;2023-12-04T07:13:24;983.46;;;-3.98;95.28
69593;BME280;56796;50.122;14.468;2023-12-04T07:32:58;983.43;;;-2.44;88.43
69593;BME280;56796;50.122;14.468;2023-12-04T07:52:32;983.25;;;-1.15;81.81
69593;BME280;56796;50.122;14.468;2023-12-04T08:12:02;983.19;;;-0.66;79.45
69593;BME280;56796;50.122;14.468;2023-12-04T08:31:33;982.96;;;-0.28;74.25
69593;BME280;56796;50.122;14.468;2023-12-04T08:50:59;983.03;;;-0.9;75.18
69593;BME280;56796;50.122;14.468;2023-12-04T09:10:29;982.86;;;0.28;72.78
69593;BME280;56796;50.122;14.468;2023-12-04T09:29:59;982.71;;;1.98;67.55
69593;BME280;56796;50.122;14.468;2023-12-04T09:49:28;982.34;;;1.13;65.02
69593;BME280;56796;50.122;14.468;2023-12-04T10:08:57;981.81;;;3.16;60.31
69593;BME280;56796;50.122;14.468;2023-12-04T10:28:29;981.52;;;0.47;63.31
69593;BME280;56796;50.122;14.468;2023-12-04T10:47:57;981.23;;;5.44;55.68
69593;BME280;56796;50.122;14.468;2023-12-04T11:07:32;981.17;;;3.79;54.85
69593;BME280;56796;50.122;14.468;2023-12-04T11:26:47;980.96;;;-1.04;67.15
69593;BME280;56796;50.122;14.468;2023-12-04T11:46:07;980.49;;;-1.44;70.21
69593;BME280;56796;50.122;14.468;2023-12-04T12:05:12;980.03;;;-3.64;79.05
69593;BME280;56796;50.122;14.468;2023-12-04T12:24:34;979.59;;;-0.69;77.41
69593;BME280;56796;50.122;14.468;2023-12-04T12:44:12;979.3;;;0.02;69.9
69593;BME280;56796;50.122;14.468;2023-12-04T13:03:34;979.32;;;-2.39;77.31
69593;BME280;56796;50.122;14.468;2023-12-04T13:22:54;979.2;;;-3.07;81.12
69593;BME280;56796;50.122;14.468;2023-12-04T13:42:15;978.83;;;-3.35;83.35
69593;BME280;56796;50.122;14.468;2023-12-04T14:01:39;978.5;;;-3.61;85.61
69593;BME280;56796;50.122;14.468;2023-12-04T14:21:03;978.11;;;-3.79;87.46
69593;BME280;56796;50.122;14.468;2023-12-04T14:40:27;978.18;;;-3.86;88.7
69593;BME280;56796;50.122;14.468;2023-12-04T14:59:53;978.12;;;-3.77;89.54
69593;BME280;56796;50.122;14.468;2023-12-04T15:19:19;978.2;;;-3.81;90.19
69593;BME280;56796;50.122;14.468;2023-12-04T15:38:45;977.84;;;-3.85;91
69593;BME280;56796;50.122;14.468;2023-12-04T15:58:10;977.6;;;-3.82;91.05
69593;BME280;56796;50.122;14.468;2023-12-04T16:17:37;977.52;;;-3.74;90.56
69593;BME280;56796;50.122;14.468;2023-12-04T16:37:03;977.32;;;-3.6;89.63
69593;BME280;56796;50.122;14.468;2023-12-04T16:56:28;977.27;;;-3.47;88.57
69593;BME280;56796;50.122;14.468;2023-12-04T17:15:58;977.1;;;-3.42;88.38
69593;BME280;56796;50.122;14.468;2023-12-04T17:35:15;976.95;;;-3.32;88.03
69593;BME280;56796;50.122;14.468;2023-12-04T17:54:42;976.81;;;-3.35;88.54
69593;BME280;56796;50.122;14.468;2023-12-04T18:14:08;976.63;;;-3.38;88.98
69593;BME280;56796;50.122;14.468;2023-12-04T18:33:34;976.44;;;-3.37;89.35
69593;BME280;56796;50.122;14.468;2023-12-04T18:53:00;976.46;;;-3.5;90.27
69593;BME280;56796;50.122;14.468;2023-12-04T19:12:25;976.51;;;-3.45;91.43
69593;BME280;56796;50.122;14.468;2023-12-04T19:31:51;976.44;;;-3.31;91.61
69593;BME280;56796;50.122;14.468;2023-12-04T19:51:17;976.36;;;-3.23;91.81
69593;BME280;56796;50.122;14.468;2023-12-04T20:10:43;976.37;;;-3.16;92.02
69593;BME280;56796;50.122;14.468;2023-12-04T20:30:09;976.3;;;-3.11;92.26
69593;BME280;56796;50.122;14.468;2023-12-04T20:49:35;975.89;;;-3.07;92.53
69593;BME280;56796;50.122;14.468;2023-12-04T21:09:02;975.67;;;-3;92.96
69593;BME280;56796;50.122;14.468;2023-12-04T21:28:28;975.52;;;-2.99;93.12
69593;BME280;56796;50.122;14.468;2023-12-04T21:47:55;975.44;;;-2.95;93.36
69593;BME280;56796;50.122;14.468;2023-12-04T22:07:21;975.2;;;-2.91;93.72
69593;BME280;56796;50.122;14.468;2023-12-04T22:26:48;975.38;;;-2.76;93.16
69593;BME280;56796;50.122;14.468;2023-12-04T22:46:15;975.21;;;-2.71;92.23
69593;BME280;56796;50.122;14.468;2023-12-04T23:05:41;974.98;;;-2.66;91.57
69593;BME280;56796;50.122;14.468;2023-12-04T23:25:11;974.91;;;-2.63;91.23
69593;BME280;56796;50.122;14.468;2023-12-04T23:44:28;974.87;;;-2.64;91.2
